sensor_id;sensor_type;location;lat;lon;timestamp;P1;durP1;ratioP1;P2;durP2;ratioP2
7773;SDS011;3931;42.260;23.116;2022-07-06T00:01:20;8.97;;;7.27;;
7773;SDS011;3931;42.260;23.116;2022-07-06T00:03:46;10.93;;;7.73;;
7773;SDS011;3931;42.260;23.116;2022-07-06T00:06:12;14.17;;;8.87;;
7773;SDS011;3931;42.260;23.116;2022-07-06T00:08:38;12.33;;;8.63;;
7773;SDS011;3931;42.260;23.116;2022-07-06T00:11:04;18.50;;;10.07;;
7773;SDS011;3931;42.260;23.116;2022-07-06T00:13:30;15.07;;;8.90;;
7773;SDS011;3931;42.260;23.116;2022-07-06T00:15:56;15.37;;;9.87;;
7773;SDS011;3931;42.260;23.116;2022-07-06T00:18:22;16.33;;;8.97;;
7773;SDS011;3931;42.260;23.116;2022-07-06T00:20:48;11.80;;;8.07;;
7773;SDS011;3931;42.260;23.116;2022-07-06T00:23:14;26.73;;;8.70;;
7773;SDS011;3931;42.260;23.116;2022-07-06T00:25:40;20.17;;;9.10;;
7773;SDS011;3931;42.260;23.116;2022-07-06T00:28:06;19.53;;;8.87;;
7773;SDS011;3931;42.260;23.116;2022-07-06T00:30:31;12.10;;;8.90;;
7773;SDS011;3931;42.260;23.116;2022-07-06T00:32:57;15.10;;;9.60;;
7773;SDS011;3931;42.260;23.116;2022-07-06T00:35:23;15.20;;;8.80;;
7773;SDS011;3931;42.260;23.116;2022-07-06T00:37:49;13.30;;;9.30;;
7773;SDS011;3931;42.260;23.116;2022-07-06T00:40:16;18.27;;;8.60;;
7773;SDS011;3931;42.260;23.116;2022-07-06T00:42:42;14.37;;;8.93;;
7773;SDS011;3931;42.260;23.116;2022-07-06T00:45:08;16.20;;;8.40;;
7773;SDS011;3931;42.260;23.116;2022-07-06T00:47:34;9.50;;;8.00;;
7773;SDS011;3931;42.260;23.116;2022-07-06T00:50:00;15.73;;;8.43;;
7773;SDS011;3931;42.260;23.116;2022-07-06T00:52:44;12.43;;;7.30;;
7773;SDS011;3931;42.260;23.116;2022-07-06T00:55:10;14.30;;;7.93;;
7773;SDS011;3931;42.260;23.116;2022-07-06T00:57:36;13.90;;;8.93;;
7773;SDS011;3931;42.260;23.116;2022-07-06T01:00:02;10.83;;;8.20;;
7773;SDS011;3931;42.260;23.116;2022-07-06T01:02:30;11.77;;;8.60;;
7773;SDS011;3931;42.260;23.116;2022-07-06T01:04:55;10.73;;;7.70;;
7773;SDS011;3931;42.260;23.116;2022-07-06T01:07:21;14.83;;;8.80;;
7773;SDS011;3931;42.260;23.116;2022-07-06T01:09:47;11.27;;;8.13;;
7773;SDS011;3931;42.260;23.116;2022-07-06T01:12:13;13.70;;;8.50;;
7773;SDS011;3931;42.260;23.116;2022-07-06T01:14:39;10.23;;;7.90;;
7773;SDS011;3931;42.260;23.116;2022-07-06T01:17:05;10.40;;;7.50;;
7773;SDS011;3931;42.260;23.116;2022-07-06T01:19:32;8.60;;;7.33;;
7773;SDS011;3931;42.260;23.116;2022-07-06T01:21:58;11.17;;;8.47;;
7773;SDS011;3931;42.260;23.116;2022-07-06T01:24:24;16.53;;;8.00;;
7773;SDS011;3931;42.260;23.116;2022-07-06T01:26:50;13.60;;;8.60;;
7773;SDS011;3931;42.260;23.116;2022-07-06T01:29:16;11.90;;;8.10;;
7773;SDS011;3931;42.260;23.116;2022-07-06T01:31:45;12.33;;;8.73;;
7773;SDS011;3931;42.260;23.116;2022-07-06T01:34:11;9.33;;;7.30;;
7773;SDS011;3931;42.260;23.116;2022-07-06T01:36:37;11.10;;;7.90;;
7773;SDS011;3931;42.260;23.116;2022-07-06T01:39:03;10.50;;;8.40;;
7773;SDS011;3931;42.260;23.116;2022-07-06T01:41:29;9.60;;;8.20;;
7773;SDS011;3931;42.260;23.116;2022-07-06T01:43:55;9.80;;;7.30;;
7773;SDS011;3931;42.260;23.116;2022-07-06T01:46:21;9.37;;;8.03;;
7773;SDS011;3931;42.260;23.116;2022-07-06T01:48:46;11.33;;;8.10;;
7773;SDS011;3931;42.260;23.116;2022-07-06T01:51:12;11.03;;;7.73;;
7773;SDS011;3931;42.260;23.116;2022-07-06T01:53:38;13.47;;;8.10;;
7773;SDS011;3931;42.260;23.116;2022-07-06T01:56:05;11.80;;;8.63;;
7773;SDS011;3931;42.260;23.116;2022-07-06T01:58:31;10.80;;;8.20;;
7773;SDS011;3931;42.260;23.116;2022-07-06T02:00:57;12.67;;;8.53;;
7773;SDS011;3931;42.260;23.116;2022-07-06T02:03:22;14.50;;;7.83;;
7773;SDS011;3931;42.260;23.116;2022-07-06T02:05:48;10.27;;;7.73;;
7773;SDS011;3931;42.260;23.116;2022-07-06T02:08:14;11.40;;;8.20;;
7773;SDS011;3931;42.260;23.116;2022-07-06T02:10:40;14.23;;;8.30;;
7773;SDS011;3931;42.260;23.116;2022-07-06T02:13:06;9.40;;;7.90;;
7773;SDS011;3931;42.260;23.116;2022-07-06T02:15:32;12.33;;;8.17;;
7773;SDS011;3931;42.260;23.116;2022-07-06T02:17:58;10.67;;;9.10;;
7773;SDS011;3931;42.260;23.116;2022-07-06T02:20:23;10.77;;;8.30;;
7773;SDS011;3931;42.260;23.116;2022-07-06T02:22:49;12.50;;;8.17;;
7773;SDS011;3931;42.260;23.116;2022-07-06T02:25:15;14.23;;;8.87;;
7773;SDS011;3931;42.260;23.116;2022-07-06T02:27:41;12.80;;;8.70;;
7773;SDS011;3931;42.260;23.116;2022-07-06T02:30:08;18.23;;;8.87;;
7773;SDS011;3931;42.260;23.116;2022-07-06T02:32:34;11.83;;;8.43;;
7773;SDS011;3931;42.260;23.116;2022-07-06T02:34:59;10.37;;;8.57;;
7773;SDS011;3931;42.260;23.116;2022-07-06T02:37:25;14.83;;;8.50;;
7773;SDS011;3931;42.260;23.116;2022-07-06T02:39:51;14.17;;;8.27;;
7773;SDS011;3931;42.260;23.116;2022-07-06T02:42:17;16.43;;;8.30;;
7773;SDS011;3931;42.260;23.116;2022-07-06T02:44:42;11.23;;;9.27;;
7773;SDS011;3931;42.260;23.116;2022-07-06T02:47:09;9.70;;;8.60;;
7773;SDS011;3931;42.260;23.116;2022-07-06T02:49:35;18.77;;;9.10;;
7773;SDS011;3931;42.260;23.116;2022-07-06T02:52:01;12.73;;;9.53;;
7773;SDS011;3931;42.260;23.116;2022-07-06T02:54:26;11.50;;;9.03;;
7773;SDS011;3931;42.260;23.116;2022-07-06T02:56:52;13.40;;;8.77;;
7773;SDS011;3931;42.260;23.116;2022-07-06T02:59:18;18.37;;;13.90;;
7773;SDS011;3931;42.260;23.116;2022-07-06T03:01:44;21.73;;;16.20;;
7773;SDS011;3931;42.260;23.116;2022-07-06T03:04:10;19.53;;;15.17;;
7773;SDS011;3931;42.260;23.116;2022-07-06T03:06:36;38.53;;;31.40;;
7773;SDS011;3931;42.260;23.116;2022-07-06T03:09:02;35.50;;;26.27;;
7773;SDS011;3931;42.260;23.116;2022-07-06T03:11:28;32.87;;;21.90;;
7773;SDS011;3931;42.260;23.116;2022-07-06T03:13:53;28.43;;;18.60;;
7773;SDS011;3931;42.260;23.116;2022-07-06T03:16:19;14.73;;;10.53;;
7773;SDS011;3931;42.260;23.116;2022-07-06T03:18:45;36.93;;;26.17;;
7773;SDS011;3931;42.260;23.116;2022-07-06T03:21:11;24.53;;;16.10;;
7773;SDS011;3931;42.260;23.116;2022-07-06T03:23:37;29.53;;;17.20;;
7773;SDS011;3931;42.260;23.116;2022-07-06T03:26:03;31.43;;;18.00;;
7773;SDS011;3931;42.260;23.116;2022-07-06T03:28:29;28.43;;;11.17;;
7773;SDS011;3931;42.260;23.116;2022-07-06T03:30:54;13.73;;;9.00;;
7773;SDS011;3931;42.260;23.116;2022-07-06T03:33:20;49.43;;;36.50;;
7773;SDS011;3931;42.260;23.116;2022-07-06T03:35:46;27.43;;;16.57;;
7773;SDS011;3931;42.260;23.116;2022-07-06T03:38:12;21.03;;;11.07;;
7773;SDS011;3931;42.260;23.116;2022-07-06T03:40:38;14.00;;;9.90;;
7773;SDS011;3931;42.260;23.116;2022-07-06T03:43:04;15.47;;;10.70;;
7773;SDS011;3931;42.260;23.116;2022-07-06T03:45:30;16.03;;;10.90;;
7773;SDS011;3931;42.260;23.116;2022-07-06T03:47:56;18.37;;;11.73;;
7773;SDS011;3931;42.260;23.116;2022-07-06T03:50:22;18.53;;;11.53;;
7773;SDS011;3931;42.260;23.116;2022-07-06T03:52:47;18.30;;;12.83;;
7773;SDS011;3931;42.260;23.116;2022-07-06T03:55:14;14.87;;;12.90;;
7773;SDS011;3931;42.260;23.116;2022-07-06T03:57:40;21.70;;;13.10;;
7773;SDS011;3931;42.260;23.116;2022-07-06T04:00:06;27.60;;;12.30;;
7773;SDS011;3931;42.260;23.116;2022-07-06T04:02:32;20.97;;;12.77;;
7773;SDS011;3931;42.260;23.116;2022-07-06T04:04:58;21.10;;;12.93;;
7773;SDS011;3931;42.260;23.116;2022-07-06T04:07:23;28.40;;;14.33;;
7773;SDS011;3931;42.260;23.116;2022-07-06T04:09:50;16.80;;;13.40;;
7773;SDS011;3931;42.260;23.116;2022-07-06T04:12:16;42.03;;;18.20;;
7773;SDS011;3931;42.260;23.116;2022-07-06T04:14:42;28.57;;;14.47;;
7773;SDS011;3931;42.260;23.116;2022-07-06T04:17:08;20.30;;;15.27;;
7773;SDS011;3931;42.260;23.116;2022-07-06T04:19:48;19.77;;;15.20;;
7773;SDS011;3931;42.260;23.116;2022-07-06T04:22:14;21.40;;;15.20;;
7773;SDS011;3931;42.260;23.116;2022-07-06T04:24:40;19.23;;;15.10;;
7773;SDS011;3931;42.260;23.116;2022-07-06T04:27:05;20.87;;;17.10;;
7773;SDS011;3931;42.260;23.116;2022-07-06T04:29:32;26.43;;;15.53;;
7773;SDS011;3931;42.260;23.116;2022-07-06T04:31:58;18.37;;;14.40;;
7773;SDS011;3931;42.260;23.116;2022-07-06T04:34:23;22.53;;;14.33;;
7773;SDS011;3931;42.260;23.116;2022-07-06T04:36:49;16.43;;;13.97;;
7773;SDS011;3931;42.260;23.116;2022-07-06T04:39:15;18.90;;;13.50;;
7773;SDS011;3931;42.260;23.116;2022-07-06T04:41:41;17.10;;;14.50;;
7773;SDS011;3931;42.260;23.116;2022-07-06T04:44:06;21.23;;;15.40;;
7773;SDS011;3931;42.260;23.116;2022-07-06T04:46:33;31.37;;;15.53;;
7773;SDS011;3931;42.260;23.116;2022-07-06T04:48:59;25.17;;;14.10;;
7773;SDS011;3931;42.260;23.116;2022-07-06T04:51:24;25.13;;;16.00;;
7773;SDS011;3931;42.260;23.116;2022-07-06T04:53:50;22.17;;;15.27;;
7773;SDS011;3931;42.260;23.116;2022-07-06T04:56:16;27.43;;;15.87;;
7773;SDS011;3931;42.260;23.116;2022-07-06T04:58:42;22.83;;;15.50;;
7773;SDS011;3931;42.260;23.116;2022-07-06T05:01:08;24.30;;;14.93;;
7773;SDS011;3931;42.260;23.116;2022-07-06T05:03:34;18.70;;;14.83;;
7773;SDS011;3931;42.260;23.116;2022-07-06T05:06:05;30.53;;;16.57;;
7773;SDS011;3931;42.260;23.116;2022-07-06T05:08:30;27.90;;;16.77;;
7773;SDS011;3931;42.260;23.116;2022-07-06T05:10:56;36.17;;;17.93;;
7773;SDS011;3931;42.260;23.116;2022-07-06T05:13:22;24.00;;;16.70;;
7773;SDS011;3931;42.260;23.116;2022-07-06T05:15:48;25.80;;;14.37;;
7773;SDS011;3931;42.260;23.116;2022-07-06T05:18:14;21.70;;;15.93;;
7773;SDS011;3931;42.260;23.116;2022-07-06T05:20:40;20.43;;;16.60;;
7773;SDS011;3931;42.260;23.116;2022-07-06T05:23:06;31.47;;;16.27;;
7773;SDS011;3931;42.260;23.116;2022-07-06T05:25:32;24.30;;;15.63;;
7773;SDS011;3931;42.260;23.116;2022-07-06T05:27:58;25.00;;;15.10;;
7773;SDS011;3931;42.260;23.116;2022-07-06T05:30:24;24.40;;;14.70;;
7773;SDS011;3931;42.260;23.116;2022-07-06T05:32:50;24.33;;;13.80;;
7773;SDS011;3931;42.260;23.116;2022-07-06T05:35:15;33.70;;;13.43;;
7773;SDS011;3931;42.260;23.116;2022-07-06T05:37:42;21.83;;;13.70;;
7773;SDS011;3931;42.260;23.116;2022-07-06T05:40:08;20.67;;;13.87;;
7773;SDS011;3931;42.260;23.116;2022-07-06T05:42:34;20.50;;;13.10;;
7773;SDS011;3931;42.260;23.116;2022-07-06T05:45:00;25.63;;;13.63;;
7773;SDS011;3931;42.260;23.116;2022-07-06T05:47:26;23.40;;;13.87;;
7773;SDS011;3931;42.260;23.116;2022-07-06T05:50:10;23.77;;;13.17;;
7773;SDS011;3931;42.260;23.116;2022-07-06T05:52:39;35.27;;;12.60;;
7773;SDS011;3931;42.260;23.116;2022-07-06T05:55:06;31.53;;;13.87;;
7773;SDS011;3931;42.260;23.116;2022-07-06T05:57:32;32.17;;;11.90;;
7773;SDS011;3931;42.260;23.116;2022-07-06T05:59:58;13.50;;;8.60;;
7773;SDS011;3931;42.260;23.116;2022-07-06T06:02:23;24.47;;;11.03;;
7773;SDS011;3931;42.260;23.116;2022-07-06T06:04:49;20.10;;;10.40;;
7773;SDS011;3931;42.260;23.116;2022-07-06T06:07:15;15.43;;;9.80;;
7773;SDS011;3931;42.260;23.116;2022-07-06T06:09:41;15.20;;;10.40;;
7773;SDS011;3931;42.260;23.116;2022-07-06T06:12:08;12.97;;;9.60;;
7773;SDS011;3931;42.260;23.116;2022-07-06T06:14:33;13.60;;;9.50;;
7773;SDS011;3931;42.260;23.116;2022-07-06T06:16:59;13.57;;;9.30;;
7773;SDS011;3931;42.260;23.116;2022-07-06T06:19:25;16.20;;;8.97;;
7773;SDS011;3931;42.260;23.116;2022-07-06T06:21:51;17.63;;;9.63;;
7773;SDS011;3931;42.260;23.116;2022-07-06T06:24:17;19.70;;;10.00;;
7773;SDS011;3931;42.260;23.116;2022-07-06T06:26:43;17.77;;;9.83;;
7773;SDS011;3931;42.260;23.116;2022-07-06T06:29:09;16.80;;;9.67;;
7773;SDS011;3931;42.260;23.116;2022-07-06T06:31:35;15.70;;;9.87;;
7773;SDS011;3931;42.260;23.116;2022-07-06T06:34:02;20.43;;;12.73;;
7773;SDS011;3931;42.260;23.116;2022-07-06T06:36:27;15.87;;;11.50;;
7773;SDS011;3931;42.260;23.116;2022-07-06T06:38:53;29.87;;;13.47;;
7773;SDS011;3931;42.260;23.116;2022-07-06T06:41:19;19.87;;;11.97;;
7773;SDS011;3931;42.260;23.116;2022-07-06T06:43:45;25.00;;;12.37;;
7773;SDS011;3931;42.260;23.116;2022-07-06T06:46:12;16.33;;;10.27;;
7773;SDS011;3931;42.260;23.116;2022-07-06T06:48:38;16.80;;;9.23;;
7773;SDS011;3931;42.260;23.116;2022-07-06T06:51:04;13.40;;;9.57;;
7773;SDS011;3931;42.260;23.116;2022-07-06T06:53:30;12.73;;;9.60;;
7773;SDS011;3931;42.260;23.116;2022-07-06T06:55:56;12.40;;;8.77;;
7773;SDS011;3931;42.260;23.116;2022-07-06T06:58:21;17.20;;;9.53;;
7773;SDS011;3931;42.260;23.116;2022-07-06T07:00:47;19.30;;;9.33;;
7773;SDS011;3931;42.260;23.116;2022-07-06T07:03:14;10.53;;;8.60;;
7773;SDS011;3931;42.260;23.116;2022-07-06T07:05:39;19.10;;;8.70;;
7773;SDS011;3931;42.260;23.116;2022-07-06T07:08:05;12.60;;;8.00;;
7773;SDS011;3931;42.260;23.116;2022-07-06T07:10:31;14.50;;;8.60;;
7773;SDS011;3931;42.260;23.116;2022-07-06T07:12:57;11.87;;;8.40;;
7773;SDS011;3931;42.260;23.116;2022-07-06T07:15:23;10.50;;;8.40;;
7773;SDS011;3931;42.260;23.116;2022-07-06T07:17:48;13.33;;;8.33;;
7773;SDS011;3931;42.260;23.116;2022-07-06T07:20:15;16.40;;;8.67;;
7773;SDS011;3931;42.260;23.116;2022-07-06T07:22:41;13.10;;;8.43;;
7773;SDS011;3931;42.260;23.116;2022-07-06T07:25:07;13.20;;;8.00;;
7773;SDS011;3931;42.260;23.116;2022-07-06T07:27:33;9.30;;;7.40;;
7773;SDS011;3931;42.260;23.116;2022-07-06T07:29:59;13.73;;;8.23;;
7773;SDS011;3931;42.260;23.116;2022-07-06T07:32:25;15.83;;;8.70;;
7773;SDS011;3931;42.260;23.116;2022-07-06T07:34:50;16.00;;;8.97;;
7773;SDS011;3931;42.260;23.116;2022-07-06T07:37:17;15.30;;;9.10;;
7773;SDS011;3931;42.260;23.116;2022-07-06T07:39:43;12.10;;;7.60;;
7773;SDS011;3931;42.260;23.116;2022-07-06T07:42:08;9.63;;;8.07;;
7773;SDS011;3931;42.260;23.116;2022-07-06T07:44:34;13.93;;;8.77;;
7773;SDS011;3931;42.260;23.116;2022-07-06T07:47:00;18.23;;;9.10;;
7773;SDS011;3931;42.260;23.116;2022-07-06T07:49:26;9.10;;;8.13;;
7773;SDS011;3931;42.260;23.116;2022-07-06T07:51:52;10.57;;;8.50;;
7773;SDS011;3931;42.260;23.116;2022-07-06T07:54:18;9.73;;;8.73;;
7773;SDS011;3931;42.260;23.116;2022-07-06T07:56:44;13.70;;;9.70;;
7773;SDS011;3931;42.260;23.116;2022-07-06T07:59:10;15.80;;;9.20;;
7773;SDS011;3931;42.260;23.116;2022-07-06T08:01:36;9.83;;;8.60;;
7773;SDS011;3931;42.260;23.116;2022-07-06T08:04:01;11.30;;;9.90;;
7773;SDS011;3931;42.260;23.116;2022-07-06T08:06:27;12.73;;;9.30;;
7773;SDS011;3931;42.260;23.116;2022-07-06T08:08:53;10.17;;;9.00;;
7773;SDS011;3931;42.260;23.116;2022-07-06T08:11:22;12.97;;;9.60;;
7773;SDS011;3931;42.260;23.116;2022-07-06T08:13:48;12.20;;;8.53;;
7773;SDS011;3931;42.260;23.116;2022-07-06T08:16:14;14.10;;;8.80;;
7773;SDS011;3931;42.260;23.116;2022-07-06T08:18:39;10.20;;;9.10;;
7773;SDS011;3931;42.260;23.116;2022-07-06T08:21:06;16.33;;;9.10;;
7773;SDS011;3931;42.260;23.116;2022-07-06T08:23:31;15.40;;;10.80;;
7773;SDS011;3931;42.260;23.116;2022-07-06T08:25:59;13.20;;;10.33;;
7773;SDS011;3931;42.260;23.116;2022-07-06T08:28:26;12.77;;;8.27;;
7773;SDS011;3931;42.260;23.116;2022-07-06T08:30:52;14.47;;;8.93;;
7773;SDS011;3931;42.260;23.116;2022-07-06T08:33:19;26.83;;;10.93;;
7773;SDS011;3931;42.260;23.116;2022-07-06T08:35:45;11.70;;;9.87;;
7773;SDS011;3931;42.260;23.116;2022-07-06T08:38:10;10.87;;;8.50;;
7773;SDS011;3931;42.260;23.116;2022-07-06T08:40:36;14.90;;;9.93;;
7773;SDS011;3931;42.260;23.116;2022-07-06T08:43:03;12.20;;;8.97;;
7773;SDS011;3931;42.260;23.116;2022-07-06T08:45:30;15.50;;;8.43;;
7773;SDS011;3931;42.260;23.116;2022-07-06T08:47:56;18.53;;;9.00;;
7773;SDS011;3931;42.260;23.116;2022-07-06T08:50:24;14.63;;;9.60;;
7773;SDS011;3931;42.260;23.116;2022-07-06T08:52:50;15.33;;;9.30;;
7773;SDS011;3931;42.260;23.116;2022-07-06T08:55:16;13.23;;;9.90;;
7773;SDS011;3931;42.260;23.116;2022-07-06T08:57:42;15.27;;;9.90;;
7773;SDS011;3931;42.260;23.116;2022-07-06T09:00:11;11.17;;;10.07;;
7773;SDS011;3931;42.260;23.116;2022-07-06T09:02:37;14.17;;;10.63;;
7773;SDS011;3931;42.260;23.116;2022-07-06T09:05:04;12.27;;;10.90;;
7773;SDS011;3931;42.260;23.116;2022-07-06T09:07:30;18.53;;;10.40;;
7773;SDS011;3931;42.260;23.116;2022-07-06T09:09:56;14.80;;;11.83;;
7773;SDS011;3931;42.260;23.116;2022-07-06T09:12:25;16.63;;;11.13;;
7773;SDS011;3931;42.260;23.116;2022-07-06T09:14:51;13.77;;;10.93;;
7773;SDS011;3931;42.260;23.116;2022-07-06T09:17:19;14.10;;;10.30;;
7773;SDS011;3931;42.260;23.116;2022-07-06T09:19:46;15.33;;;9.30;;
7773;SDS011;3931;42.260;23.116;2022-07-06T09:22:24;12.57;;;10.03;;
7773;SDS011;3931;42.260;23.116;2022-07-06T09:24:50;16.70;;;10.40;;
7773;SDS011;3931;42.260;23.116;2022-07-06T09:27:16;11.03;;;9.90;;
7773;SDS011;3931;42.260;23.116;2022-07-06T09:29:42;17.23;;;12.37;;
7773;SDS011;3931;42.260;23.116;2022-07-06T09:32:08;13.70;;;10.47;;
7773;SDS011;3931;42.260;23.116;2022-07-06T09:34:40;13.37;;;11.90;;
7773;SDS011;3931;42.260;23.116;2022-07-06T09:37:08;29.20;;;14.20;;
7773;SDS011;3931;42.260;23.116;2022-07-06T09:39:33;15.13;;;12.00;;
7773;SDS011;3931;42.260;23.116;2022-07-06T09:42:00;14.00;;;12.00;;
7773;SDS011;3931;42.260;23.116;2022-07-06T09:44:26;11.63;;;10.07;;
7773;SDS011;3931;42.260;23.116;2022-07-06T09:46:53;13.30;;;9.43;;
7773;SDS011;3931;42.260;23.116;2022-07-06T09:49:19;10.95;;;9.85;;
7773;SDS011;3931;42.260;23.116;2022-07-06T09:51:45;9.73;;;8.68;;
7773;SDS011;3931;42.260;23.116;2022-07-06T09:54:12;13.83;;;9.37;;
7773;SDS011;3931;42.260;23.116;2022-07-06T09:56:38;12.37;;;9.10;;
7773;SDS011;3931;42.260;23.116;2022-07-06T09:59:14;10.07;;;9.10;;
7773;SDS011;3931;42.260;23.116;2022-07-06T10:01:40;9.48;;;8.00;;
7773;SDS011;3931;42.260;23.116;2022-07-06T10:04:07;9.50;;;7.93;;
7773;SDS011;3931;42.260;23.116;2022-07-06T10:06:33;12.05;;;8.30;;
7773;SDS011;3931;42.260;23.116;2022-07-06T10:08:59;9.45;;;8.55;;
7773;SDS011;3931;42.260;23.116;2022-07-06T10:11:26;13.93;;;8.77;;
7773;SDS011;3931;42.260;23.116;2022-07-06T10:13:54;14.48;;;9.77;;
7773;SDS011;3931;42.260;23.116;2022-07-06T10:16:20;9.00;;;8.07;;
7773;SDS011;3931;42.260;23.116;2022-07-06T10:18:47;9.93;;;8.93;;
7773;SDS011;3931;42.260;23.116;2022-07-06T10:21:14;8.82;;;7.60;;
7773;SDS011;3931;42.260;23.116;2022-07-06T10:23:40;10.18;;;8.07;;
7773;SDS011;3931;42.260;23.116;2022-07-06T10:26:06;9.85;;;8.90;;
7773;SDS011;3931;42.260;23.116;2022-07-06T10:28:34;9.50;;;8.60;;
7773;SDS011;3931;42.260;23.116;2022-07-06T10:31:00;11.13;;;9.82;;
7773;SDS011;3931;42.260;23.116;2022-07-06T10:33:26;11.45;;;10.25;;
7773;SDS011;3931;42.260;23.116;2022-07-06T10:35:52;12.10;;;10.60;;
7773;SDS011;3931;42.260;23.116;2022-07-06T10:38:18;13.20;;;10.90;;
7773;SDS011;3931;42.260;23.116;2022-07-06T10:40:44;13.85;;;10.70;;
7773;SDS011;3931;42.260;23.116;2022-07-06T10:43:31;15.07;;;9.70;;
7773;SDS011;3931;42.260;23.116;2022-07-06T10:45:58;13.45;;;11.13;;
7773;SDS011;3931;42.260;23.116;2022-07-06T10:48:23;12.45;;;10.55;;
7773;SDS011;3931;42.260;23.116;2022-07-06T10:50:50;13.00;;;9.63;;
7773;SDS011;3931;42.260;23.116;2022-07-06T10:53:17;19.70;;;10.25;;
7773;SDS011;3931;42.260;23.116;2022-07-06T10:55:43;11.15;;;10.00;;
7773;SDS011;3931;42.260;23.116;2022-07-06T10:58:09;12.23;;;10.90;;
7773;SDS011;3931;42.260;23.116;2022-07-06T11:00:48;13.90;;;11.15;;
7773;SDS011;3931;42.260;23.116;2022-07-06T11:03:31;10.82;;;9.75;;
7773;SDS011;3931;42.260;23.116;2022-07-06T11:05:57;10.90;;;9.80;;
7773;SDS011;3931;42.260;23.116;2022-07-06T11:08:26;11.98;;;10.23;;
7773;SDS011;3931;42.260;23.116;2022-07-06T11:11:10;10.80;;;9.13;;
7773;SDS011;3931;42.260;23.116;2022-07-06T11:13:41;11.18;;;10.02;;
7773;SDS011;3931;42.260;23.116;2022-07-06T11:16:07;12.27;;;10.07;;
7773;SDS011;3931;42.260;23.116;2022-07-06T11:18:38;17.90;;;10.50;;
7773;SDS011;3931;42.260;23.116;2022-07-06T11:21:21;12.32;;;10.02;;
7773;SDS011;3931;42.260;23.116;2022-07-06T11:23:47;16.13;;;10.93;;
7773;SDS011;3931;42.260;23.116;2022-07-06T11:26:13;11.15;;;10.05;;
7773;SDS011;3931;42.260;23.116;2022-07-06T11:28:39;13.00;;;10.10;;
7773;SDS011;3931;42.260;23.116;2022-07-06T11:31:06;15.25;;;10.65;;
7773;SDS011;3931;42.260;23.116;2022-07-06T11:33:32;15.38;;;9.82;;
7773;SDS011;3931;42.260;23.116;2022-07-06T11:36:11;11.07;;;9.98;;
7773;SDS011;3931;42.260;23.116;2022-07-06T11:38:37;12.07;;;10.13;;
7773;SDS011;3931;42.260;23.116;2022-07-06T11:41:03;20.58;;;10.38;;
7773;SDS011;3931;42.260;23.116;2022-07-06T11:43:29;11.55;;;10.35;;
7773;SDS011;3931;42.260;23.116;2022-07-06T11:45:54;9.90;;;8.90;;
7773;SDS011;3931;42.260;23.116;2022-07-06T11:48:20;12.82;;;9.93;;
7773;SDS011;3931;42.260;23.116;2022-07-06T11:50:56;11.82;;;9.15;;
7773;SDS011;3931;42.260;23.116;2022-07-06T11:53:23;11.20;;;9.75;;
7773;SDS011;3931;42.260;23.116;2022-07-06T11:55:49;10.23;;;9.10;;
7773;SDS011;3931;42.260;23.116;2022-07-06T11:58:14;10.88;;;9.85;;
7773;SDS011;3931;42.260;23.116;2022-07-06T12:00:41;9.93;;;8.93;;
7773;SDS011;3931;42.260;23.116;2022-07-06T12:03:07;12.07;;;9.15;;
7773;SDS011;3931;42.260;23.116;2022-07-06T12:05:33;10.82;;;9.73;;
7773;SDS011;3931;42.260;23.116;2022-07-06T12:08:05;11.13;;;9.95;;
7773;SDS011;3931;42.260;23.116;2022-07-06T12:10:31;11.27;;;9.52;;
7773;SDS011;3931;42.260;23.116;2022-07-06T12:13:02;10.25;;;9.35;;
7773;SDS011;3931;42.260;23.116;2022-07-06T12:15:27;10.55;;;9.57;;
7773;SDS011;3931;42.260;23.116;2022-07-06T12:17:53;10.10;;;9.10;;
7773;SDS011;3931;42.260;23.116;2022-07-06T12:20:19;11.65;;;10.45;;
7773;SDS011;3931;42.260;23.116;2022-07-06T12:22:45;10.70;;;9.57;;
7773;SDS011;3931;42.260;23.116;2022-07-06T12:25:11;11.93;;;10.73;;
7773;SDS011;3931;42.260;23.116;2022-07-06T12:27:37;11.45;;;10.23;;
7773;SDS011;3931;42.260;23.116;2022-07-06T12:30:09;11.25;;;10.05;;
7773;SDS011;3931;42.260;23.116;2022-07-06T12:32:35;11.93;;;10.50;;
7773;SDS011;3931;42.260;23.116;2022-07-06T12:35:02;11.55;;;10.40;;
7773;SDS011;3931;42.260;23.116;2022-07-06T12:37:27;11.23;;;10.13;;
7773;SDS011;3931;42.260;23.116;2022-07-06T12:39:53;10.65;;;9.52;;
7773;SDS011;3931;42.260;23.116;2022-07-06T12:42:19;11.15;;;9.95;;
7773;SDS011;3931;42.260;23.116;2022-07-06T12:44:47;10.90;;;9.90;;
7773;SDS011;3931;42.260;23.116;2022-07-06T12:47:16;12.70;;;10.18;;
7773;SDS011;3931;42.260;23.116;2022-07-06T12:49:42;19.45;;;9.98;;
7773;SDS011;3931;42.260;23.116;2022-07-06T12:52:09;11.48;;;10.27;;
7773;SDS011;3931;42.260;23.116;2022-07-06T12:54:36;12.02;;;10.55;;
7773;SDS011;3931;42.260;23.116;2022-07-06T12:57:06;12.15;;;9.90;;
7773;SDS011;3931;42.260;23.116;2022-07-06T12:59:33;12.32;;;11.13;;
7773;SDS011;3931;42.260;23.116;2022-07-06T13:01:59;13.40;;;10.25;;
7773;SDS011;3931;42.260;23.116;2022-07-06T13:04:26;12.00;;;9.00;;
7773;SDS011;3931;42.260;23.116;2022-07-06T13:06:52;15.45;;;8.98;;
7773;SDS011;3931;42.260;23.116;2022-07-06T13:09:18;10.18;;;9.13;;
7773;SDS011;3931;42.260;23.116;2022-07-06T13:11:44;10.38;;;9.32;;
7773;SDS011;3931;42.260;23.116;2022-07-06T13:14:10;12.45;;;9.48;;
7773;SDS011;3931;42.260;23.116;2022-07-06T13:16:36;13.07;;;10.90;;
7773;SDS011;3931;42.260;23.116;2022-07-06T13:19:02;11.32;;;10.13;;
7773;SDS011;3931;42.260;23.116;2022-07-06T13:21:28;13.50;;;11.57;;
7773;SDS011;3931;42.260;23.116;2022-07-06T13:23:54;11.68;;;10.50;;
7773;SDS011;3931;42.260;23.116;2022-07-06T13:26:20;10.38;;;9.23;;
7773;SDS011;3931;42.260;23.116;2022-07-06T13:28:46;11.65;;;10.48;;
7773;SDS011;3931;42.260;23.116;2022-07-06T13:31:12;13.98;;;9.63;;
7773;SDS011;3931;42.260;23.116;2022-07-06T13:33:37;14.70;;;9.35;;
7773;SDS011;3931;42.260;23.116;2022-07-06T13:36:04;12.60;;;8.90;;
7773;SDS011;3931;42.260;23.116;2022-07-06T13:38:30;10.07;;;9.18;;
7773;SDS011;3931;42.260;23.116;2022-07-06T13:40:56;11.70;;;9.80;;
7773;SDS011;3931;42.260;23.116;2022-07-06T13:43:22;14.73;;;9.30;;
7773;SDS011;3931;42.260;23.116;2022-07-06T13:45:47;11.25;;;8.98;;
7773;SDS011;3931;42.260;23.116;2022-07-06T13:48:13;10.60;;;7.68;;
7773;SDS011;3931;42.260;23.116;2022-07-06T13:50:39;10.23;;;8.98;;
7773;SDS011;3931;42.260;23.116;2022-07-06T13:53:05;14.95;;;8.38;;
7773;SDS011;3931;42.260;23.116;2022-07-06T13:55:31;7.47;;;6.70;;
7773;SDS011;3931;42.260;23.116;2022-07-06T13:57:57;9.50;;;6.90;;
7773;SDS011;3931;42.260;23.116;2022-07-06T14:00:23;13.00;;;7.10;;
7773;SDS011;3931;42.260;23.116;2022-07-06T14:02:49;9.65;;;6.75;;
7773;SDS011;3931;42.260;23.116;2022-07-06T14:05:15;6.80;;;5.97;;
7773;SDS011;3931;42.260;23.116;2022-07-06T14:07:41;10.23;;;7.72;;
7773;SDS011;3931;42.260;23.116;2022-07-06T14:10:08;12.20;;;6.30;;
7773;SDS011;3931;42.260;23.116;2022-07-06T14:12:34;6.80;;;6.20;;
7773;SDS011;3931;42.260;23.116;2022-07-06T14:14:59;13.52;;;6.38;;
7773;SDS011;3931;42.260;23.116;2022-07-06T14:17:25;12.73;;;6.30;;
7773;SDS011;3931;42.260;23.116;2022-07-06T14:19:51;12.38;;;6.95;;
7773;SDS011;3931;42.260;23.116;2022-07-06T14:22:17;10.88;;;5.70;;
7773;SDS011;3931;42.260;23.116;2022-07-06T14:24:43;8.02;;;5.72;;
7773;SDS011;3931;42.260;23.116;2022-07-06T14:27:09;13.98;;;6.68;;
7773;SDS011;3931;42.260;23.116;2022-07-06T14:29:35;6.75;;;5.85;;
7773;SDS011;3931;42.260;23.116;2022-07-06T14:32:01;5.63;;;5.13;;
7773;SDS011;3931;42.260;23.116;2022-07-06T14:34:26;5.45;;;4.88;;
7773;SDS011;3931;42.260;23.116;2022-07-06T14:36:52;12.77;;;5.25;;
7773;SDS011;3931;42.260;23.116;2022-07-06T14:39:18;9.77;;;5.18;;